sensor_id;sensor_type;location;lat;lon;timestamp;temperature;humidity
29203;DHT22;16245;51.170;4.884;2023-03-01T00:01:11;-0.10;99.90
29203;DHT22;16245;51.170;4.884;2023-03-01T00:03:37;-0.10;99.90
29203;DHT22;16245;51.170;4.884;2023-03-01T00:06:03;-0.10;99.90
29203;DHT22;16245;51.170;4.884;2023-03-01T00:08:30;-0.20;99.90
29203;DHT22;16245;51.170;4.884;2023-03-01T00:11:15;-0.10;99.90
29203;DHT22;16245;51.170;4.884;2023-03-01T00:13:43;-0.20;99.90
29203;DHT22;16245;51.170;4.884;2023-03-01T00:16:16;-0.30;99.90
29203;DHT22;16245;51.170;4.884;2023-03-01T00:18:43;-0.30;99.90
29203;DHT22;16245;51.170;4.884;2023-03-01T00:21:09;-0.30;99.90
29203;DHT22;16245;51.170;4.884;2023-03-01T00:23:36;-0.40;99.90
29203;DHT22;16245;51.170;4.884;2023-03-01T00:26:05;-0.30;99.90
29203;DHT22;16245;51.170;4.884;2023-03-01T00:28:31;-0.40;99.90
29203;DHT22;16245;51.170;4.884;2023-03-01T00:31:06;-0.50;99.90
29203;DHT22;16245;51.170;4.884;2023-03-01T00:33:32;-0.40;99.90
29203;DHT22;16245;51.170;4.884;2023-03-01T00:35:58;-0.40;99.90
29203;DHT22;16245;51.170;4.884;2023-03-01T00:38:24;-0.50;99.90
29203;DHT22;16245;51.170;4.884;2023-03-01T00:40:50;-0.50;99.90
29203;DHT22;16245;51.170;4.884;2023-03-01T00:43:16;-0.60;99.90
29203;DHT22;16245;51.170;4.884;2023-03-01T00:45:41;-0.50;99.90
29203;DHT22;16245;51.170;4.884;2023-03-01T00:48:07;-0.60;99.90
29203;DHT22;16245;51.170;4.884;2023-03-01T00:50:33;-0.60;99.90
29203;DHT22;16245;51.170;4.884;2023-03-01T00:52:58;-0.70;99.90
29203;DHT22;16245;51.170;4.884;2023-03-01T00:55:24;-0.60;99.90
29203;DHT22;16245;51.170;4.884;2023-03-01T00:57:50;-0.70;99.90
29203;DHT22;16245;51.170;4.884;2023-03-01T01:00:17;-0.60;99.90
29203;DHT22;16245;51.170;4.884;2023-03-01T01:02:43;-0.70;99.90
29203;DHT22;16245;51.170;4.884;2023-03-01T01:05:09;-0.50;99.90
29203;DHT22;16245;51.170;4.884;2023-03-01T01:07:35;-0.50;99.90
29203;DHT22;16245;51.170;4.884;2023-03-01T01:10:01;-0.60;99.90
29203;DHT22;16245;51.170;4.884;2023-03-01T01:12:27;-0.50;99.90
29203;DHT22;16245;51.170;4.884;2023-03-01T01:14:52;-0.50;99.90
29203;DHT22;16245;51.170;4.884;2023-03-01T01:17:18;-0.60;99.90
29203;DHT22;16245;51.170;4.884;2023-03-01T01:19:43;-0.60;99.90
29203;DHT22;16245;51.170;4.884;2023-03-01T01:22:09;-0.70;99.90
29203;DHT22;16245;51.170;4.884;2023-03-01T01:24:36;-0.60;99.90
29203;DHT22;16245;51.170;4.884;2023-03-01T01:27:01;-0.60;99.90
29203;DHT22;16245;51.170;4.884;2023-03-01T01:29:27;-0.60;99.90
29203;DHT22;16245;51.170;4.884;2023-03-01T01:31:53;-0.70;99.90
29203;DHT22;16245;51.170;4.884;2023-03-01T01:34:20;-0.80;99.90
29203;DHT22;16245;51.170;4.884;2023-03-01T01:36:51;-0.70;99.90
29203;DHT22;16245;51.170;4.884;2023-03-01T01:39:19;-0.80;99.90
29203;DHT22;16245;51.170;4.884;2023-03-01T01:41:45;-0.90;99.90
29203;DHT22;16245;51.170;4.884;2023-03-01T01:44:27;-0.90;99.90
29203;DHT22;16245;51.170;4.884;2023-03-01T01:49:25;-1.00;99.90
29203;DHT22;16245;51.170;4.884;2023-03-01T01:52:14;-1.00;99.90
29203;DHT22;16245;51.170;4.884;2023-03-01T01:57:30;-1.10;99.90
29203;DHT22;16245;51.170;4.884;2023-03-01T02:00:00;-1.00;99.90
29203;DHT22;16245;51.170;4.884;2023-03-01T02:02:29;-1.10;99.90
29203;DHT22;16245;51.170;4.884;2023-03-01T02:07:53;-1.20;99.90
29203;DHT22;16245;51.170;4.884;2023-03-01T02:10:20;-1.20;99.90
29203;DHT22;16245;51.170;4.884;2023-03-01T02:12:46;-1.20;99.90
29203;DHT22;16245;51.170;4.884;2023-03-01T02:15:12;-1.30;99.90
29203;DHT22;16245;51.170;4.884;2023-03-01T02:17:38;-1.30;99.90
29203;DHT22;16245;51.170;4.884;2023-03-01T02:22:43;-1.20;99.90
29203;DHT22;16245;51.170;4.884;2023-03-01T02:28:16;-1.20;99.90
29203;DHT22;16245;51.170;4.884;2023-03-01T02:30:48;-1.20;99.90
29203;DHT22;16245;51.170;4.884;2023-03-01T02:33:35;-1.10;99.90
29203;DHT22;16245;51.170;4.884;2023-03-01T02:36:07;-0.90;99.90
29203;DHT22;16245;51.170;4.884;2023-03-01T02:38:34;-0.80;99.90
29203;DHT22;16245;51.170;4.884;2023-03-01T02:41:00;-0.80;99.90
29203;DHT22;16245;51.170;4.884;2023-03-01T02:43:31;-0.90;99.90
29203;DHT22;16245;51.170;4.884;2023-03-01T02:46:24;-0.90;99.90
29203;DHT22;16245;51.170;4.884;2023-03-01T02:48:54;-0.90;99.90
29203;DHT22;16245;51.170;4.884;2023-03-01T02:51:42;-0.80;99.90
29203;DHT22;16245;51.170;4.884;2023-03-01T02:54:40;-0.70;99.90
29203;DHT22;16245;51.170;4.884;2023-03-01T02:57:07;-0.70;99.90
29203;DHT22;16245;51.170;4.884;2023-03-01T02:59:35;-0.70;99.90
29203;DHT22;16245;51.170;4.884;2023-03-01T03:02:05;-0.70;99.90
29203;DHT22;16245;51.170;4.884;2023-03-01T03:04:31;-0.70;99.90
29203;DHT22;16245;51.170;4.884;2023-03-01T03:06:57;-0.60;99.90
29203;DHT22;16245;51.170;4.884;2023-03-01T03:09:23;-0.60;99.90
29203;DHT22;16245;51.170;4.884;2023-03-01T03:11:48;-0.70;99.90
29203;DHT22;16245;51.170;4.884;2023-03-01T03:14:16;-0.60;99.90
29203;DHT22;16245;51.170;4.884;2023-03-01T03:16:47;-0.60;99.90
29203;DHT22;16245;51.170;4.884;2023-03-01T03:19:14;-0.60;99.90
29203;DHT22;16245;51.170;4.884;2023-03-01T03:21:40;-0.60;99.90
29203;DHT22;16245;51.170;4.884;2023-03-01T03:24:05;-0.60;99.90
29203;DHT22;16245;51.170;4.884;2023-03-01T03:26:31;-0.60;99.90
29203;DHT22;16245;51.170;4.884;2023-03-01T03:28:57;-0.70;99.90
29203;DHT22;16245;51.170;4.884;2023-03-01T03:31:23;-0.80;99.90
29203;DHT22;16245;51.170;4.884;2023-03-01T03:33:49;-0.80;99.90
29203;DHT22;16245;51.170;4.884;2023-03-01T03:36:16;-0.80;99.90
29203;DHT22;16245;51.170;4.884;2023-03-01T03:38:44;-0.80;99.90
29203;DHT22;16245;51.170;4.884;2023-03-01T03:41:11;-0.70;99.90
29203;DHT22;16245;51.170;4.884;2023-03-01T03:43:38;-0.70;99.90
29203;DHT22;16245;51.170;4.884;2023-03-01T03:46:04;-0.80;99.90
29203;DHT22;16245;51.170;4.884;2023-03-01T03:48:33;-0.80;99.90
29203;DHT22;16245;51.170;4.884;2023-03-01T03:50:59;-0.80;99.90
29203;DHT22;16245;51.170;4.884;2023-03-01T03:53:26;-0.90;99.90
29203;DHT22;16245;51.170;4.884;2023-03-01T03:55:53;-0.90;99.90
29203;DHT22;16245;51.170;4.884;2023-03-01T03:58:21;-1.00;99.90
29203;DHT22;16245;51.170;4.884;2023-03-01T04:00:52;-1.10;99.90
29203;DHT22;16245;51.170;4.884;2023-03-01T04:03:20;-1.10;99.90
29203;DHT22;16245;51.170;4.884;2023-03-01T04:05:46;-1.10;99.90
29203;DHT22;16245;51.170;4.884;2023-03-01T04:08:13;-1.20;99.90
29203;DHT22;16245;51.170;4.884;2023-03-01T04:10:45;-1.20;99.90
29203;DHT22;16245;51.170;4.884;2023-03-01T04:13:13;-1.10;99.90
29203;DHT22;16245;51.170;4.884;2023-03-01T04:15:39;-1.10;99.90
29203;DHT22;16245;51.170;4.884;2023-03-01T04:18:06;-1.10;99.90
29203;DHT22;16245;51.170;4.884;2023-03-01T04:20:34;-1.30;99.90
29203;DHT22;16245;51.170;4.884;2023-03-01T04:23:09;-1.30;99.90
29203;DHT22;16245;51.170;4.884;2023-03-01T04:25:49;-1.40;99.90
29203;DHT22;16245;51.170;4.884;2023-03-01T04:30:52;-1.40;99.90
29203;DHT22;16245;51.170;4.884;2023-03-01T04:33:18;-1.40;99.90
29203;DHT22;16245;51.170;4.884;2023-03-01T04:35:44;-1.50;99.90
29203;DHT22;16245;51.170;4.884;2023-03-01T04:38:09;-1.50;99.90
29203;DHT22;16245;51.170;4.884;2023-03-01T04:40:36;-1.40;99.90
29203;DHT22;16245;51.170;4.884;2023-03-01T04:43:03;-1.40;99.90
29203;DHT22;16245;51.170;4.884;2023-03-01T04:45:29;-1.50;99.90
29203;DHT22;16245;51.170;4.884;2023-03-01T04:47:55;-1.30;99.90
29203;DHT22;16245;51.170;4.884;2023-03-01T04:50:23;-1.40;99.90
29203;DHT22;16245;51.170;4.884;2023-03-01T04:52:50;-1.30;99.90
29203;DHT22;16245;51.170;4.884;2023-03-01T04:55:16;-1.30;99.90
29203;DHT22;16245;51.170;4.884;2023-03-01T04:57:42;-1.50;99.90
29203;DHT22;16245;51.170;4.884;2023-03-01T05:00:11;-1.40;99.90
29203;DHT22;16245;51.170;4.884;2023-03-01T05:02:57;-1.30;99.90
29203;DHT22;16245;51.170;4.884;2023-03-01T05:05:27;-1.20;99.90
29203;DHT22;16245;51.170;4.884;2023-03-01T05:07:58;-1.10;99.90
29203;DHT22;16245;51.170;4.884;2023-03-01T05:10:24;-1.20;99.90
29203;DHT22;16245;51.170;4.884;2023-03-01T05:12:50;-1.20;99.90
29203;DHT22;16245;51.170;4.884;2023-03-01T05:15:17;-1.20;99.90
29203;DHT22;16245;51.170;4.884;2023-03-01T05:17:43;-1.30;99.90
29203;DHT22;16245;51.170;4.884;2023-03-01T05:20:10;-1.30;99.90
29203;DHT22;16245;51.170;4.884;2023-03-01T05:22:36;-1.40;99.90
29203;DHT22;16245;51.170;4.884;2023-03-01T05:25:02;-1.40;99.90
29203;DHT22;16245;51.170;4.884;2023-03-01T05:27:28;-1.30;99.90
29203;DHT22;16245;51.170;4.884;2023-03-01T05:29:55;-1.30;99.90
29203;DHT22;16245;51.170;4.884;2023-03-01T05:32:21;-1.30;99.90
29203;DHT22;16245;51.170;4.884;2023-03-01T05:34:46;-1.40;99.90
29203;DHT22;16245;51.170;4.884;2023-03-01T05:37:13;-1.40;99.90
29203;DHT22;16245;51.170;4.884;2023-03-01T05:39:39;-1.20;99.90
29203;DHT22;16245;51.170;4.884;2023-03-01T05:42:05;-1.30;99.90
29203;DHT22;16245;51.170;4.884;2023-03-01T05:44:30;-1.40;99.90
29203;DHT22;16245;51.170;4.884;2023-03-01T05:46:56;-1.50;99.90
29203;DHT22;16245;51.170;4.884;2023-03-01T05:49:23;-1.50;99.90
29203;DHT22;16245;51.170;4.884;2023-03-01T05:51:51;-1.50;99.90
29203;DHT22;16245;51.170;4.884;2023-03-01T05:54:18;-1.60;99.90
29203;DHT22;16245;51.170;4.884;2023-03-01T05:56:44;-1.60;99.90
29203;DHT22;16245;51.170;4.884;2023-03-01T05:59:10;-1.70;99.90
29203;DHT22;16245;51.170;4.884;2023-03-01T06:01:37;-1.70;99.90
29203;DHT22;16245;51.170;4.884;2023-03-01T06:04:03;-1.70;99.90
29203;DHT22;16245;51.170;4.884;2023-03-01T06:06:30;-1.80;99.90
29203;DHT22;16245;51.170;4.884;2023-03-01T06:08:58;-1.80;99.90
29203;DHT22;16245;51.170;4.884;2023-03-01T06:11:24;-1.80;99.90
29203;DHT22;16245;51.170;4.884;2023-03-01T06:13:50;-1.90;99.90
29203;DHT22;16245;51.170;4.884;2023-03-01T06:16:16;-2.00;99.90
29203;DHT22;16245;51.170;4.884;2023-03-01T06:18:41;-2.00;99.90
29203;DHT22;16245;51.170;4.884;2023-03-01T06:21:08;-2.00;99.90
29203;DHT22;16245;51.170;4.884;2023-03-01T06:23:34;-2.00;99.90
29203;DHT22;16245;51.170;4.884;2023-03-01T06:26:04;-2.00;99.90
29203;DHT22;16245;51.170;4.884;2023-03-01T06:28:30;-1.90;99.90
29203;DHT22;16245;51.170;4.884;2023-03-01T06:30:55;-1.90;99.90
29203;DHT22;16245;51.170;4.884;2023-03-01T06:33:21;-1.90;99.90
29203;DHT22;16245;51.170;4.884;2023-03-01T06:35:49;-2.00;99.90
29203;DHT22;16245;51.170;4.884;2023-03-01T06:38:15;-2.00;99.90
29203;DHT22;16245;51.170;4.884;2023-03-01T06:40:42;-2.10;99.90
29203;DHT22;16245;51.170;4.884;2023-03-01T06:43:08;-2.10;99.90
29203;DHT22;16245;51.170;4.884;2023-03-01T06:45:34;-2.10;99.90
29203;DHT22;16245;51.170;4.884;2023-03-01T06:48:06;-2.00;99.90
29203;DHT22;16245;51.170;4.884;2023-03-01T06:50:33;-2.00;99.90
29203;DHT22;16245;51.170;4.884;2023-03-01T06:52:59;-2.00;99.90
29203;DHT22;16245;51.170;4.884;2023-03-01T06:55:25;-2.00;99.90
29203;DHT22;16245;51.170;4.884;2023-03-01T06:57:58;-1.90;99.90
29203;DHT22;16245;51.170;4.884;2023-03-01T07:00:24;-1.80;99.90
29203;DHT22;16245;51.170;4.884;2023-03-01T07:02:50;-1.80;99.90
29203;DHT22;16245;51.170;4.884;2023-03-01T07:05:16;-1.70;99.90
29203;DHT22;16245;51.170;4.884;2023-03-01T07:07:41;-1.70;99.90
29203;DHT22;16245;51.170;4.884;2023-03-01T07:10:08;-1.70;99.90
29203;DHT22;16245;51.170;4.884;2023-03-01T07:12:34;-1.60;99.90
29203;DHT22;16245;51.170;4.884;2023-03-01T07:14:59;-1.60;99.90
29203;DHT22;16245;51.170;4.884;2023-03-01T07:17:25;-1.40;99.90
29203;DHT22;16245;51.170;4.884;2023-03-01T07:19:51;-1.30;99.90
29203;DHT22;16245;51.170;4.884;2023-03-01T07:22:17;-1.20;99.90
29203;DHT22;16245;51.170;4.884;2023-03-01T07:24:42;-1.00;99.90
29203;DHT22;16245;51.170;4.884;2023-03-01T07:27:08;-1.00;99.90
29203;DHT22;16245;51.170;4.884;2023-03-01T07:29:34;-0.90;99.90
29203;DHT22;16245;51.170;4.884;2023-03-01T07:32:02;-0.80;99.90
29203;DHT22;16245;51.170;4.884;2023-03-01T07:34:28;-0.70;99.90
29203;DHT22;16245;51.170;4.884;2023-03-01T07:36:54;-0.50;99.90
29203;DHT22;16245;51.170;4.884;2023-03-01T07:39:19;-0.20;99.90
29203;DHT22;16245;51.170;4.884;2023-03-01T07:41:45;0.30;99.90
29203;DHT22;16245;51.170;4.884;2023-03-01T07:44:11;1.50;99.90
29203;DHT22;16245;51.170;4.884;2023-03-01T07:46:36;3.40;99.90
29203;DHT22;16245;51.170;4.884;2023-03-01T07:49:02;5.20;99.90
29203;DHT22;16245;51.170;4.884;2023-03-01T07:51:28;6.80;99.90
29203;DHT22;16245;51.170;4.884;2023-03-01T07:53:53;8.20;99.90
29203;DHT22;16245;51.170;4.884;2023-03-01T07:56:19;9.30;98.70
29203;DHT22;16245;51.170;4.884;2023-03-01T07:58:46;10.00;96.30
29203;DHT22;16245;51.170;4.884;2023-03-01T08:01:15;10.80;95.30
29203;DHT22;16245;51.170;4.884;2023-03-01T08:03:41;11.70;93.30
29203;DHT22;16245;51.170;4.884;2023-03-01T08:06:09;12.10;92.10
29203;DHT22;16245;51.170;4.884;2023-03-01T08:08:35;12.30;92.00
29203;DHT22;16245;51.170;4.884;2023-03-01T08:11:03;13.00;90.90
29203;DHT22;16245;51.170;4.884;2023-03-01T08:13:30;13.40;90.00
29203;DHT22;16245;51.170;4.884;2023-03-01T08:16:08;14.20;87.00
29203;DHT22;16245;51.170;4.884;2023-03-01T08:18:35;14.70;85.80
29203;DHT22;16245;51.170;4.884;2023-03-01T08:21:05;14.20;87.90
29203;DHT22;16245;51.170;4.884;2023-03-01T08:23:30;14.70;86.30
29203;DHT22;16245;51.170;4.884;2023-03-01T08:26:17;15.40;83.70
29203;DHT22;16245;51.170;4.884;2023-03-01T08:28:44;15.80;81.80
29203;DHT22;16245;51.170;4.884;2023-03-01T08:31:21;16.00;81.20
29203;DHT22;16245;51.170;4.884;2023-03-01T08:33:49;16.10;80.70
29203;DHT22;16245;51.170;4.884;2023-03-01T08:36:22;16.30;81.90
29203;DHT22;16245;51.170;4.884;2023-03-01T08:38:48;16.70;81.60
29203;DHT22;16245;51.170;4.884;2023-03-01T08:41:14;16.60;80.10
29203;DHT22;16245;51.170;4.884;2023-03-01T08:43:40;16.90;80.30
29203;DHT22;16245;51.170;4.884;2023-03-01T08:46:06;17.80;77.10
29203;DHT22;16245;51.170;4.884;2023-03-01T08:48:32;18.10;76.60
29203;DHT22;16245;51.170;4.884;2023-03-01T08:51:07;18.80;74.10
29203;DHT22;16245;51.170;4.884;2023-03-01T08:53:33;19.10;72.20
29203;DHT22;16245;51.170;4.884;2023-03-01T08:56:02;18.30;73.80
29203;DHT22;16245;51.170;4.884;2023-03-01T08:58:29;18.50;71.20
29203;DHT22;16245;51.170;4.884;2023-03-01T09:00:55;18.50;72.80
29203;DHT22;16245;51.170;4.884;2023-03-01T09:03:22;18.30;72.10
29203;DHT22;16245;51.170;4.884;2023-03-01T09:05:48;18.30;73.80
29203;DHT22;16245;51.170;4.884;2023-03-01T09:08:18;19.10;70.50
29203;DHT22;16245;51.170;4.884;2023-03-01T09:10:44;19.70;67.80
29203;DHT22;16245;51.170;4.884;2023-03-01T09:13:10;18.80;70.00
29203;DHT22;16245;51.170;4.884;2023-03-01T09:15:39;18.00;72.70
29203;DHT22;16245;51.170;4.884;2023-03-01T09:18:05;18.30;71.80
29203;DHT22;16245;51.170;4.884;2023-03-01T09:20:31;18.10;73.10
29203;DHT22;16245;51.170;4.884;2023-03-01T09:22:57;18.90;69.30
29203;DHT22;16245;51.170;4.884;2023-03-01T09:25:24;18.50;71.40
29203;DHT22;16245;51.170;4.884;2023-03-01T09:27:53;18.70;72.50
29203;DHT22;16245;51.170;4.884;2023-03-01T09:30:19;19.10;69.70
29203;DHT22;16245;51.170;4.884;2023-03-01T09:32:45;18.80;72.20
29203;DHT22;16245;51.170;4.884;2023-03-01T09:35:11;18.80;71.40
29203;DHT22;16245;51.170;4.884;2023-03-01T09:37:37;19.20;71.10
29203;DHT22;16245;51.170;4.884;2023-03-01T09:40:05;18.90;70.70
29203;DHT22;16245;51.170;4.884;2023-03-01T09:42:35;19.10;67.00
29203;DHT22;16245;51.170;4.884;2023-03-01T09:45:04;18.70;67.60
29203;DHT22;16245;51.170;4.884;2023-03-01T09:47:33;19.00;69.30
29203;DHT22;16245;51.170;4.884;2023-03-01T09:50:14;19.10;68.70
29203;DHT22;16245;51.170;4.884;2023-03-01T09:53:05;19.80;66.20
29203;DHT22;16245;51.170;4.884;2023-03-01T09:55:45;20.20;64.60
29203;DHT22;16245;51.170;4.884;2023-03-01T10:09:34;19.10;70.20
29203;DHT22;16245;51.170;4.884;2023-03-01T10:12:02;19.00;69.50
29203;DHT22;16245;51.170;4.884;2023-03-01T10:17:20;19.90;66.50
29203;DHT22;16245;51.170;4.884;2023-03-01T10:19:49;20.40;64.80
29203;DHT22;16245;51.170;4.884;2023-03-01T10:22:20;20.40;64.80
29203;DHT22;16245;51.170;4.884;2023-03-01T10:24:47;19.20;68.50
29203;DHT22;16245;51.170;4.884;2023-03-01T10:27:23;20.00;64.90
29203;DHT22;16245;51.170;4.884;2023-03-01T10:32:29;19.80;64.60
29203;DHT22;16245;51.170;4.884;2023-03-01T10:34:55;19.30;65.90
29203;DHT22;16245;51.170;4.884;2023-03-01T10:37:21;19.80;63.10
29203;DHT22;16245;51.170;4.884;2023-03-01T10:40:08;19.40;64.60
29203;DHT22;16245;51.170;4.884;2023-03-01T10:42:48;19.60;64.20
29203;DHT22;16245;51.170;4.884;2023-03-01T10:45:35;19.30;62.50
29203;DHT22;16245;51.170;4.884;2023-03-01T10:48:12;19.20;63.50
29203;DHT22;16245;51.170;4.884;2023-03-01T10:50:45;18.90;64.70
29203;DHT22;16245;51.170;4.884;2023-03-01T10:58:29;19.50;62.50
29203;DHT22;16245;51.170;4.884;2023-03-01T11:00:58;19.10;63.30
29203;DHT22;16245;51.170;4.884;2023-03-01T11:03:38;18.80;63.00
29203;DHT22;16245;51.170;4.884;2023-03-01T11:06:20;18.70;63.70
29203;DHT22;16245;51.170;4.884;2023-03-01T11:08:48;18.80;63.20
29203;DHT22;16245;51.170;4.884;2023-03-01T11:11:22;18.50;65.40
29203;DHT22;16245;51.170;4.884;2023-03-01T11:14:12;18.30;61.50
29203;DHT22;16245;51.170;4.884;2023-03-01T11:16:41;18.00;63.80
29203;DHT22;16245;51.170;4.884;2023-03-01T11:22:12;17.80;65.10
29203;DHT22;16245;51.170;4.884;2023-03-01T11:24:41;17.40;64.40
29203;DHT22;16245;51.170;4.884;2023-03-01T11:27:30;17.00;65.30
29203;DHT22;16245;51.170;4.884;2023-03-01T11:32:39;16.50;66.70
29203;DHT22;16245;51.170;4.884;2023-03-01T11:37:39;16.00;67.10
29203;DHT22;16245;51.170;4.884;2023-03-01T11:43:01;14.60;70.40
29203;DHT22;16245;51.170;4.884;2023-03-01T11:45:37;14.10;70.70
29203;DHT22;16245;51.170;4.884;2023-03-01T11:48:27;13.40;73.20
29203;DHT22;16245;51.170;4.884;2023-03-01T11:50:56;13.00;74.10
29203;DHT22;16245;51.170;4.884;2023-03-01T12:07:03;10.80;80.80
29203;DHT22;16245;51.170;4.884;2023-03-01T12:09:33;10.50;80.20
29203;DHT22;16245;51.170;4.884;2023-03-01T12:12:30;10.30;80.40
29203;DHT22;16245;51.170;4.884;2023-03-01T12:28:57;10.20;84.30
29203;DHT22;16245;51.170;4.884;2023-03-01T12:45:25;9.90;84.40
29203;DHT22;16245;51.170;4.884;2023-03-01T12:50:46;9.80;84.00
29203;DHT22;16245;51.170;4.884;2023-03-01T12:53:32;9.70;82.00
29203;DHT22;16245;51.170;4.884;2023-03-01T12:56:10;9.70;85.80
29203;DHT22;16245;51.170;4.884;2023-03-01T13:09:40;9.90;85.70
29203;DHT22;16245;51.170;4.884;2023-03-01T13:15:31;9.70;84.70
29203;DHT22;16245;51.170;4.884;2023-03-01T13:18:27;9.70;84.70
29203;DHT22;16245;51.170;4.884;2023-03-01T13:20:55;9.60;84.80
29203;DHT22;16245;51.170;4.884;2023-03-01T13:31:04;9.20;85.90
29203;DHT22;16245;51.170;4.884;2023-03-01T13:35:59;9.20;87.70
29203;DHT22;16245;51.170;4.884;2023-03-01T13:41:27;9.30;88.50
29203;DHT22;16245;51.170;4.884;2023-03-01T13:46:38;9.20;86.50
29203;DHT22;16245;51.170;4.884;2023-03-01T13:49:04;9.20;87.50
29203;DHT22;16245;51.170;4.884;2023-03-01T13:51:29;9.10;84.00
29203;DHT22;16245;51.170;4.884;2023-03-01T13:53:56;9.10;86.40
29203;DHT22;16245;51.170;4.884;2023-03-01T13:56:28;9.10;85.60
29203;DHT22;16245;51.170;4.884;2023-03-01T13:59:14;9.10;87.20
29203;DHT22;16245;51.170;4.884;2023-03-01T14:01:40;9.20;86.90
29203;DHT22;16245;51.170;4.884;2023-03-01T14:04:26;9.20;88.70
29203;DHT22;16245;51.170;4.884;2023-03-01T14:07:12;9.10;87.30
29203;DHT22;16245;51.170;4.884;2023-03-01T14:09:41;9.10;87.20
29203;DHT22;16245;51.170;4.884;2023-03-01T14:15:46;9.10;88.40
29203;DHT22;16245;51.170;4.884;2023-03-01T14:18:19;9.30;88.60
29203;DHT22;16245;51.170;4.884;2023-03-01T14:20:46;9.30;87.50
29203;DHT22;16245;51.170;4.884;2023-03-01T14:23:20;9.30;87.70
29203;DHT22;16245;51.170;4.884;2023-03-01T14:25:51;9.30;87.90
29203;DHT22;16245;51.170;4.884;2023-03-01T14:28:25;9.30;87.40
29203;DHT22;16245;51.170;4.884;2023-03-01T14:30:55;9.30;86.60
29203;DHT22;16245;51.170;4.884;2023-03-01T14:33:36;9.30;87.60
29203;DHT22;16245;51.170;4.884;2023-03-01T14:36:06;9.30;87.10
29203;DHT22;16245;51.170;4.884;2023-03-01T14:41:08;9.00;88.40
29203;DHT22;16245;51.170;4.884;2023-03-01T14:43:41;9.10;88.20
29203;DHT22;16245;51.170;4.884;2023-03-01T14:46:21;9.20;87.90
29203;DHT22;16245;51.170;4.884;2023-03-01T14:48:53;9.10;85.30
29203;DHT22;16245;51.170;4.884;2023-03-01T14:51:19;9.00;85.20
29203;DHT22;16245;51.170;4.884;2023-03-01T14:53:48;8.90;86.00
29203;DHT22;16245;51.170;4.884;2023-03-01T14:56:16;8.80;85.00
29203;DHT22;16245;51.170;4.884;2023-03-01T14:58:43;8.80;86.30
29203;DHT22;16245;51.170;4.884;2023-03-01T15:01:16;8.80;86.80
29203;DHT22;16245;51.170;4.884;2023-03-01T15:03:47;8.70;86.60
29203;DHT22;16245;51.170;4.884;2023-03-01T15:06:18;8.70;87.20
29203;DHT22;16245;51.170;4.884;2023-03-01T15:08:50;8.70;87.20
29203;DHT22;16245;51.170;4.884;2023-03-01T15:11:28;8.70;89.30
29203;DHT22;16245;51.170;4.884;2023-03-01T15:13:54;8.60;88.40
29203;DHT22;16245;51.170;4.884;2023-03-01T15:16:29;8.60;87.50
29203;DHT22;16245;51.170;4.884;2023-03-01T15:19:06;8.60;88.20
29203;DHT22;16245;51.170;4.884;2023-03-01T15:21:37;8.60;88.70
29203;DHT22;16245;51.170;4.884;2023-03-01T15:26:41;8.50;87.70
29203;DHT22;16245;51.170;4.884;2023-03-01T15:29:18;8.60;88.10
29203;DHT22;16245;51.170;4.884;2023-03-01T15:32:01;8.70;86.00
29203;DHT22;16245;51.170;4.884;2023-03-01T15:34:38;8.60;86.80
29203;DHT22;16245;51.170;4.884;2023-03-01T15:37:06;8.50;87.90
29203;DHT22;16245;51.170;4.884;2023-03-01T15:39:57;8.40;87.60
29203;DHT22;16245;51.170;4.884;2023-03-01T15:45:22;8.30;89.60
29203;DHT22;16245;51.170;4.884;2023-03-01T15:47:53;8.30;89.80
29203;DHT22;16245;51.170;4.884;2023-03-01T15:50:27;8.20;90.40
29203;DHT22;16245;51.170;4.884;2023-03-01T15:52:54;8.20;89.90
29203;DHT22;16245;51.170;4.884;2023-03-01T15:55:29;8.20;90.30
29203;DHT22;16245;51.170;4.884;2023-03-01T15:58:34;8.00;90.50
29203;DHT22;16245;51.170;4.884;2023-03-01T16:00:59;8.00;90.40
29203;DHT22;16245;51.170;4.884;2023-03-01T16:03:25;8.10;90.30
29203;DHT22;16245;51.170;4.884;2023-03-01T16:05:51;8.10;90.10
29203;DHT22;16245;51.170;4.884;2023-03-01T16:08:17;8.00;90.30
29203;DHT22;16245;51.170;4.884;2023-03-01T16:10:44;8.00;90.20
29203;DHT22;16245;51.170;4.884;2023-03-01T16:13:13;7.90;90.60
29203;DHT22;16245;51.170;4.884;2023-03-01T16:15:39;7.80;90.80
29203;DHT22;16245;51.170;4.884;2023-03-01T16:18:06;7.80;90.60
29203;DHT22;16245;51.170;4.884;2023-03-01T16:20:33;7.80;90.80
29203;DHT22;16245;51.170;4.884;2023-03-01T16:23:01;7.70;90.80
29203;DHT22;16245;51.170;4.884;2023-03-01T16:25:28;7.60;91.00
29203;DHT22;16245;51.170;4.884;2023-03-01T16:27:54;7.60;90.90
29203;DHT22;16245;51.170;4.884;2023-03-01T16:30:22;7.60;91.20
29203;DHT22;16245;51.170;4.884;2023-03-01T16:32:49;7.50;91.30
29203;DHT22;16245;51.170;4.884;2023-03-01T16:35:16;7.40;91.50
29203;DHT22;16245;51.170;4.884;2023-03-01T16:37:42;7.30;91.80
29203;DHT22;16245;51.170;4.884;2023-03-01T16:40:23;7.30;91.90
29203;DHT22;16245;51.170;4.884;2023-03-01T16:42:49;7.20;92.20
29203;DHT22;16245;51.170;4.884;2023-03-01T16:45:16;7.20;92.60
29203;DHT22;16245;51.170;4.884;2023-03-01T16:47:41;7.00;92.50
29203;DHT22;16245;51.170;4.884;2023-03-01T16:50:08;6.90;92.70
29203;DHT22;16245;51.170;4.884;2023-03-01T16:52:34;6.90;92.60
29203;DHT22;16245;51.170;4.884;2023-03-01T16:55:00;6.80;92.70
29203;DHT22;16245;51.170;4.884;2023-03-01T16:57:25;6.70;92.70
29203;DHT22;16245;51.170;4.884;2023-03-01T16:59:54;6.70;92.30
29203;DHT22;16245;51.170;4.884;2023-03-01T17:02:20;6.60;92.70
29203;DHT22;16245;51.170;4.884;2023-03-01T17:04:52;6.60;92.80
29203;DHT22;16245;51.170;4.884;2023-03-01T17:07:18;6.50;92.80
29203;DHT22;16245;51.170;4.884;2023-03-01T17:09:44;6.40;93.00
29203;DHT22;16245;51.170;4.884;2023-03-01T17:12:12;6.20;93.30
29203;DHT22;16245;51.170;4.884;2023-03-01T17:14:38;6.20;93.40
29203;DHT22;16245;51.170;4.884;2023-03-01T17:17:07;6.10;93.60
29203;DHT22;16245;51.170;4.884;2023-03-01T17:19:32;6.00;93.70
29203;DHT22;16245;51.170;4.884;2023-03-01T17:21:59;5.90;93.70
29203;DHT22;16245;51.170;4.884;2023-03-01T17:24:25;5.90;93.90
29203;DHT22;16245;51.170;4.884;2023-03-01T17:26:51;5.80;94.00
29203;DHT22;16245;51.170;4.884;2023-03-01T17:29:16;5.70;94.10
29203;DHT22;16245;51.170;4.884;2023-03-01T17:31:43;5.60;94.20
29203;DHT22;16245;51.170;4.884;2023-03-01T17:34:09;5.50;94.20
29203;DHT22;16245;51.170;4.884;2023-03-01T17:36:34;5.50;94.10
29203;DHT22;16245;51.170;4.884;2023-03-01T17:39:12;5.40;94.30
29203;DHT22;16245;51.170;4.884;2023-03-01T17:41:38;5.30;94.40
29203;DHT22;16245;51.170;4.884;2023-03-01T17:44:03;5.20;94.50
29203;DHT22;16245;51.170;4.884;2023-03-01T17:46:29;5.10;94.70
29203;DHT22;16245;51.170;4.884;2023-03-01T17:48:55;5.00;94.90
29203;DHT22;16245;51.170;4.884;2023-03-01T17:51:20;5.00;94.90
29203;DHT22;16245;51.170;4.884;2023-03-01T17:53:46;4.90;95.00
29203;DHT22;16245;51.170;4.884;2023-03-01T17:56:12;4.80;95.20
29203;DHT22;16245;51.170;4.884;2023-03-01T17:58:38;4.80;95.20
29203;DHT22;16245;51.170;4.884;2023-03-01T18:01:13;4.80;95.20
29203;DHT22;16245;51.170;4.884;2023-03-01T18:03:40;4.70;95.30